Time;durP1;ratioP1;P1;durP2;ratioP2;P2;SDS_P1;SDS_P2;PMS_P1;PMS_P2;Temp;Humidity;BMP_temperature;BMP_pressure;BME280_temperature;BME280_humidity;BME280_pressure;Samples;Min_cycle;Max_cycle;Signal;HPM_P1;HPM_P2
2023/07/30 00:00:34;;;;;;;5.45;3.72;;;;;;;18.35;73.62;98121.47;5045874;28;20029;-79
2023/07/30 00:02:59;;;;;;;4.53;3.65;;;;;;;18.46;73.73;98122.78;5044434;28;20084;-79
2023/07/30 00:05:25;;;;;;;9.13;3.55;;;;;;;18.71;73.11;98123.91;5053030;28;20404;-80
2023/07/30 00:07:50;;;;;;;4.32;3.22;;;;;;;19.01;71.57;98124.84;5038307;28;20036;-79
2023/07/30 00:10:16;;;;;;;3.85;3.20;;;;;;;18.92;71.76;98127.56;5036073;28;20032;-79
2023/07/30 00:12:42;;;;;;;14.40;2.88;;;;;;;18.90;71.96;98129.78;5040676;28;20055;-79
2023/07/30 00:15:07;;;;;;;4.20;3.05;;;;;;;18.87;71.98;98140.47;5042415;28;20036;-78
2023/07/30 00:17:33;;;;;;;14.43;3.67;;;;;;;18.85;71.94;98123.75;5050028;28;20079;-80
2023/07/30 00:19:58;;;;;;;4.25;3.50;;;;;;;18.68;72.22;98135.34;5048724;28;20048;-77
2023/07/30 00:22:24;;;;;;;4.53;3.30;;;;;;;18.75;72.28;98137.59;5037884;28;20098;-77
2023/07/30 00:24:49;;;;;;;6.10;3.22;;;;;;;18.81;72.21;98147.91;5046393;28;20045;-77
2023/07/30 00:27:14;;;;;;;5.32;3.60;;;;;;;18.58;72.26;98141.09;5044266;28;20133;-78
2023/07/30 00:29:40;;;;;;;3.63;2.90;;;;;;;18.68;72.64;98138.06;5041058;28;20029;-77
2023/07/30 00:32:06;;;;;;;4.97;3.97;;;;;;;18.71;72.54;98140.13;5042224;28;20036;-77
2023/07/30 00:34:31;;;;;;;7.22;3.67;;;;;;;18.78;72.34;98142.38;5041340;28;20044;-77
2023/07/30 00:36:56;;;;;;;5.45;3.33;;;;;;;18.70;72.33;98139.34;5044052;28;20432;-77
2023/07/30 00:39:22;;;;;;;7.57;3.67;;;;;;;18.75;71.83;98148.41;5043144;28;20024;-77
2023/07/30 00:41:47;;;;;;;4.55;3.58;;;;;;;18.63;72.50;98147.13;5048981;28;20091;-77
2023/07/30 00:44:12;;;;;;;6.10;3.35;;;;;;;18.54;72.71;98145.53;5048901;28;20086;-79
2023/07/30 00:46:38;;;;;;;3.78;3.08;;;;;;;18.64;72.55;98146.03;5023249;28;20048;-80
2023/07/30 00:49:03;;;;;;;7.15;2.90;;;;;;;18.57;72.93;98145.69;5047210;28;20068;-78
2023/07/30 00:51:31;;;;;;;4.22;3.20;;;;;;;18.59;72.72;98151.56;5044121;28;20036;-79
2023/07/30 00:53:56;;;;;;;5.22;3.33;;;;;;;18.64;72.39;98150.63;5044116;28;20029;-78
2023/07/30 00:56:22;;;;;;;4.45;3.50;;;;;;;18.42;72.99;98142.63;5048230;28;20040;-78
2023/07/30 00:58:49;;;;;;;5.82;3.33;;;;;;;18.47;73.21;98148.72;5056053;28;20079;-80
2023/07/30 01:01:15;;;;;;;6.93;3.20;;;;;;;18.43;73.62;98144.22;5053111;28;20056;-78
2023/07/30 01:03:41;;;;;;;4.22;3.35;;;;;;;18.41;73.53;98149.91;5047625;28;20506;-78
2023/07/30 01:06:07;;;;;;;7.32;3.65;;;;;;;18.40;73.45;98155.66;5052177;28;20033;-79
2023/07/30 01:08:32;;;;;;;5.63;3.30;;;;;;;18.32;73.94;98159.16;5049910;28;20045;-78
2023/07/30 01:10:58;;;;;;;8.13;4.35;;;;;;;18.24;73.77;98158.00;5054274;28;20082;-78
2023/07/30 01:13:24;;;;;;;6.55;3.22;;;;;;;18.09;74.65;98157.66;5051701;28;20029;-79
2023/07/30 01:15:50;;;;;;;4.97;3.20;;;;;;;17.92;76.34;98166.50;5051849;28;20036;-78
2023/07/30 01:18:16;;;;;;;4.82;3.17;;;;;;;18.19;74.58;98168.19;5052157;28;20120;-80
2023/07/30 01:20:41;;;;;;;4.18;3.00;;;;;;;18.19;74.27;98165.47;5050294;28;20123;-78
2023/07/30 01:23:06;;;;;;;4.07;3.30;;;;;;;17.93;75.36;98171.56;5048006;28;20044;-78
2023/07/30 01:25:36;;;;;;;5.93;3.10;;;;;;;17.98;74.98;98173.34;5050693;28;20025;-78
2023/07/30 01:28:04;;;;;;;6.32;2.95;;;;;;;18.19;74.19;98168.19;5046570;28;20176;-78
2023/07/30 01:30:49;;;;;;;4.10;3.30;;;;;;;18.14;74.46;98179.91;5053199;28;20068;-80
2023/07/30 01:33:15;;;;;;;3.20;2.38;;;;;;;18.13;74.43;98174.84;5043822;28;20486;-78
2023/07/30 01:35:42;;;;;;;6.50;3.15;;;;;;;17.96;75.54;98179.06;5050839;28;20048;-79
2023/07/30 01:38:09;;;;;;;4.70;3.13;;;;;;;18.27;73.46;98186.31;5049901;28;20048;-79
2023/07/30 01:40:35;;;;;;;17.55;2.90;;;;;;;18.22;73.93;98178.34;5014645;28;20029;-78
2023/07/30 01:43:00;;;;;;;3.40;3.10;;;;;;;18.25;73.92;98180.41;5039260;28;20096;-77
2023/07/30 01:45:26;;;;;;;6.10;2.70;;;;;;;17.88;75.53;98170.94;5046489;28;20040;-78
2023/07/30 01:47:52;;;;;;;3.40;2.92;;;;;;;18.23;74.12;98185.34;5049283;28;20025;-78
2023/07/30 01:50:17;;;;;;;3.53;3.00;;;;;;;18.02;75.43;98184.34;5043138;28;21820;-78
2023/07/30 01:52:42;;;;;;;5.68;2.83;;;;;;;18.02;74.97;98187.03;5047942;28;20099;-79
2023/07/30 01:55:08;;;;;;;2.95;2.65;;;;;;;18.01;74.72;98180.03;5045208;28;20163;-79
2023/07/30 01:57:33;;;;;;;6.63;3.58;;;;;;;17.92;75.31;98185.41;5049595;28;20025;-78
2023/07/30 01:59:59;;;;;;;4.65;3.60;;;;;;;18.15;74.14;98191.53;5050846;28;20430;-78
2023/07/30 02:02:24;;;;;;;5.15;2.65;;;;;;;17.95;75.93;98201.00;5047503;28;20056;-78
2023/07/30 02:04:50;;;;;;;7.28;3.05;;;;;;;17.99;74.60;98204.66;5043041;28;20068;-77
2023/07/30 02:07:15;;;;;;;6.40;3.17;;;;;;;17.98;74.88;98197.66;5057950;23;20040;-74
2023/07/30 02:09:40;;;;;;;7.50;3.60;;;;;;;18.03;74.50;98208.31;5052137;28;20033;-74
2023/07/30 02:12:06;;;;;;;4.78;2.72;;;;;;;17.74;75.74;98198.03;5049788;28;20515;-74
2023/07/30 02:14:32;;;;;;;3.17;2.90;;;;;;;17.61;77.14;98201.59;5049855;28;20111;-74
2023/07/30 02:16:57;;;;;;;4.00;3.17;;;;;;;17.86;75.17;98190.16;5051979;28;20431;-75
2023/07/30 02:19:22;;;;;;;7.30;2.95;;;;;;;18.01;74.36;98191.63;5050810;28;20025;-75
2023/07/30 02:21:48;;;;;;;3.92;3.30;;;;;;;18.08;74.24;98194.69;5048285;28;20035;-75
2023/07/30 02:24:15;;;;;;;4.78;3.05;;;;;;;18.02;74.53;98195.91;5051311;28;20047;-75
2023/07/30 02:26:41;;;;;;;7.68;2.63;;;;;;;17.82;75.13;98199.97;5048681;28;20044;-76
2023/07/30 02:29:06;;;;;;;4.35;3.25;;;;;;;17.58;76.17;98202.22;5033334;28;20496;-75
2023/07/30 02:31:32;;;;;;;11.80;3.53;;;;;;;17.21;78.43;98208.00;5051979;28;20079;-75
2023/07/30 02:33:58;;;;;;;3.90;3.47;;;;;;;16.64;81.64;98216.88;5051990;28;20100;-75
2023/07/30 02:36:24;;;;;;;9.82;3.95;;;;;;;16.34;83.78;98219.06;5049124;28;20112;-75
2023/07/30 02:38:49;;;;;;;5.53;3.67;;;;;;;16.27;83.65;98220.59;5049080;28;20108;-75
2023/07/30 02:41:14;;;;;;;8.25;3.58;;;;;;;17.17;77.53;98217.78;5049245;28;20044;-75
2023/07/30 02:43:40;;;;;;;5.45;2.97;;;;;;;17.56;76.04;98215.22;5044373;28;20025;-75
2023/07/30 02:46:06;;;;;;;4.70;3.42;;;;;;;17.96;74.59;98222.28;5051324;28;20397;-75
2023/07/30 02:48:32;;;;;;;3.60;3.30;;;;;;;17.94;74.24;98219.09;5050359;28;20025;-75
2023/07/30 02:50:57;;;;;;;5.28;2.95;;;;;;;18.12;73.65;98219.16;5047623;28;20029;-75
2023/07/30 02:53:22;;;;;;;9.50;3.28;;;;;;;18.15;73.79;98227.41;5044380;28;20026;-75
2023/07/30 02:55:48;;;;;;;6.03;3.60;;;;;;;17.97;74.10;98218.44;5051073;28;20556;-75
2023/07/30 02:58:13;;;;;;;6.32;2.80;;;;;;;18.11;74.16;98220.28;5048952;28;20444;-75
2023/07/30 03:00:38;;;;;;;7.28;2.95;;;;;;;18.14;73.72;98225.84;5050000;28;20051;-75
2023/07/30 03:03:04;;;;;;;4.97;2.90;;;;;;;18.10;74.09;98229.47;5046127;28;20036;-75
2023/07/30 03:05:29;;;;;;;4.80;3.05;;;;;;;17.94;74.27;98224.50;5046160;28;20025;-75
2023/07/30 03:07:55;;;;;;;6.40;3.25;;;;;;;17.99;74.18;98226.25;5045944;28;20041;-75
2023/07/30 03:10:20;;;;;;;4.68;3.28;;;;;;;18.02;74.12;98235.66;5050194;28;20112;-75
2023/07/30 03:12:45;;;;;;;5.78;3.17;;;;;;;18.02;74.34;98222.91;5050366;28;20033;-75
2023/07/30 03:15:11;;;;;;;4.95;3.28;;;;;;;18.04;74.57;98233.44;5050823;28;20040;-75
2023/07/30 03:17:36;;;;;;;3.15;2.85;;;;;;;17.87;75.54;98234.94;5050766;28;20435;-75
2023/07/30 03:20:03;;;;;;;4.32;3.60;;;;;;;17.72;74.84;98232.63;5044298;28;20035;-75
2023/07/30 03:22:28;;;;;;;4.75;2.85;;;;;;;17.94;74.75;98232.59;5046230;28;20025;-75
2023/07/30 03:24:53;;;;;;;5.63;3.25;;;;;;;18.08;74.23;98232.50;5050174;28;20039;-75
2023/07/30 03:27:19;;;;;;;9.60;3.20;;;;;;;18.11;74.11;98236.47;5035773;28;20067;-75
2023/07/30 03:29:44;;;;;;;6.47;3.45;;;;;;;18.16;73.68;98234.44;5050887;28;20112;-75
2023/07/30 03:32:09;;;;;;;7.88;3.40;;;;;;;18.07;74.33;98244.38;5048586;28;20048;-75
2023/07/30 03:34:35;;;;;;;3.33;2.90;;;;;;;17.87;74.54;98232.22;5048889;28;20037;-75
2023/07/30 03:37:00;;;;;;;6.00;3.22;;;;;;;17.81;75.12;98238.06;5049632;28;20087;-75
2023/07/30 03:39:26;;;;;;;4.93;3.38;;;;;;;17.71;75.78;98243.75;5043132;28;20449;-75
2023/07/30 03:41:51;;;;;;;6.53;2.70;;;;;;;17.43;76.34;98240.34;5045957;28;20111;-75
2023/07/30 03:44:16;;;;;;;6.40;3.33;;;;;;;17.42;76.71;98246.06;5049158;28;20080;-75
2023/07/30 03:46:43;;;;;;;4.97;3.40;;;;;;;17.59;75.92;98243.50;5046278;28;20052;-75
2023/07/30 03:49:08;;;;;;;5.40;3.40;;;;;;;17.62;75.51;98243.69;5046387;28;20056;-74
2023/07/30 03:51:34;;;;;;;4.00;3.60;;;;;;;17.65;75.70;98245.75;5046074;28;20057;-76
2023/07/30 03:53:59;;;;;;;4.25;3.40;;;;;;;17.69;75.08;98251.34;5045640;28;20029;-76
2023/07/30 03:56:25;;;;;;;5.55;4.05;;;;;;;17.53;76.00;98252.84;5049182;28;20025;-77
2023/07/30 03:58:50;;;;;;;6.45;5.28;;;;;;;17.20;77.21;98258.44;5046975;28;20515;-77
2023/07/30 04:01:16;;;;;;;71.15;6.38;;;;;;;17.53;76.08;98263.63;5047989;28;20037;-76
2023/07/30 04:03:41;;;;;;;9.18;4.35;;;;;;;17.64;75.60;98264.97;5046399;28;20087;-74
2023/07/30 04:06:06;;;;;;;8.50;3.92;;;;;;;17.59;75.56;98262.38;5047882;28;20404;-74
2023/07/30 04:08:32;;;;;;;10.30;6.25;;;;;;;17.25;76.52;98258.31;5046958;28;20381;-74
2023/07/30 04:10:57;;;;;;;7.63;4.95;;;;;;;17.36;76.87;98269.69;5048795;28;20107;-74
2023/07/30 04:13:22;;;;;;;9.05;5.63;;;;;;;17.51;76.06;98274.75;5047379;28;20120;-74
2023/07/30 04:15:48;;;;;;;10.73;4.43;;;;;;;17.58;76.14;98275.09;5047155;28;20052;-76
2023/07/30 04:18:13;;;;;;;7.72;4.05;;;;;;;17.48;76.40;98294.19;5049681;28;20033;-75
2023/07/30 04:20:39;;;;;;;11.07;5.63;;;;;;;17.07;79.15;98280.06;5042489;28;20474;-75
2023/07/30 04:23:04;;;;;;;8.07;4.85;;;;;;;17.20;78.20;98276.53;5043037;28;20094;-74
2023/07/30 04:25:29;;;;;;;5.45;4.50;;;;;;;16.93;79.90;98263.09;5048207;28;20389;-73
2023/07/30 04:27:55;;;;;;;9.02;4.53;;;;;;;16.95;79.50;98274.41;5042249;28;20024;-74
2023/07/30 04:30:20;;;;;;;14.82;6.15;;;;;;;16.79;80.82;98270.44;5040823;28;20033;-74
2023/07/30 04:32:45;;;;;;;9.85;5.15;;;;;;;16.97;78.96;98278.38;5042076;28;20487;-74
2023/07/30 04:35:11;;;;;;;10.10;5.05;;;;;;;16.62;82.01;98272.97;5041307;28;20045;-74
2023/07/30 04:37:36;;;;;;;6.25;5.65;;;;;;;16.64;81.74;98276.16;5047974;28;20025;-74
2023/07/30 04:40:02;;;;;;;8.10;4.80;;;;;;;17.23;77.40;98278.63;5048300;28;20476;-74
2023/07/30 04:42:27;;;;;;;6.80;5.22;;;;;;;17.08;79.83;98265.50;5050491;28;20110;-74
2023/07/30 04:44:53;;;;;;;6.60;4.85;;;;;;;17.24;78.15;98275.63;5047517;28;20025;-73
2023/07/30 04:47:18;;;;;;;8.02;4.85;;;;;;;17.03;80.87;98268.28;5043263;28;20033;-73
2023/07/30 04:49:43;;;;;;;7.60;4.45;;;;;;;17.16;79.31;98281.75;5048658;28;20033;-75
2023/07/30 04:52:10;;;;;;;6.60;4.68;;;;;;;17.25;78.33;98276.41;5049167;28;20031;-75
2023/07/30 04:54:36;;;;;;;6.38;4.13;;;;;;;17.30;78.23;98276.28;5048462;28;20493;-75
2023/07/30 04:57:02;;;;;;;5.78;4.20;;;;;;;17.44;77.58;98278.94;5049372;28;20039;-75
2023/07/30 04:59:27;;;;;;;9.60;4.07;;;;;;;17.72;76.65;98277.72;5050317;28;20040;-75
2023/07/30 05:01:53;;;;;;;6.20;3.92;;;;;;;17.53;78.80;98285.22;5046700;28;20063;-75
2023/07/30 05:04:18;;;;;;;9.35;4.95;;;;;;;17.42;78.82;98279.25;5047160;28;20037;-75
2023/07/30 05:06:43;;;;;;;4.88;4.38;;;;;;;17.44;79.81;98284.31;5048875;28;20096;-74
2023/07/30 05:09:09;;;;;;;5.40;4.32;;;;;;;17.30;80.49;98278.19;5044010;28;20554;-75
2023/07/30 05:11:34;;;;;;;6.65;3.63;;;;;;;17.56;78.67;98279.22;5046989;28;20560;-75
2023/07/30 05:13:59;;;;;;;6.00;4.15;;;;;;;17.55;79.33;98278.41;5045430;28;20025;-74
2023/07/30 05:16:25;;;;;;;6.07;4.10;;;;;;;17.67;77.92;98280.56;5048927;28;20033;-74
2023/07/30 05:18:50;;;;;;;6.72;4.28;;;;;;;17.53;80.04;98277.94;5046904;28;20473;-74
2023/07/30 05:21:15;;;;;;;5.97;3.90;;;;;;;17.58;79.12;98280.47;5044042;28;20041;-74
2023/07/30 05:23:41;;;;;;;8.63;3.80;;;;;;;18.04;76.52;98279.34;5042171;28;20018;-74
2023/07/30 05:26:06;;;;;;;8.32;4.15;;;;;;;18.40;75.03;98275.34;5047535;28;20025;-74
2023/07/30 05:28:32;;;;;;;11.13;4.13;;;;;;;18.26;75.31;98279.28;5050907;28;20472;-75
2023/07/30 05:30:58;;;;;;;9.00;4.55;;;;;;;17.75;80.56;98275.22;5052567;28;20024;-76
2023/07/30 05:33:23;;;;;;;11.00;3.95;;;;;;;17.85;78.24;98269.53;5050635;28;20032;-75
2023/07/30 05:35:49;;;;;;;4.88;4.15;;;;;;;17.75;79.85;98267.13;5050193;28;20033;-76
2023/07/30 05:38:14;;;;;;;7.63;4.60;;;;;;;17.77;81.52;98266.78;5051842;28;20029;-76
2023/07/30 05:40:41;;;;;;;9.43;4.30;;;;;;;18.21;76.33;98280.22;5047771;28;20029;-75
2023/07/30 05:43:07;;;;;;;6.38;4.15;;;;;;;18.08;78.22;98277.59;5044879;28;20121;-75
2023/07/30 05:45:34;;;;;;;5.13;3.85;;;;;;;18.08;77.07;98274.91;5046414;28;20495;-75
2023/07/30 05:47:59;;;;;;;8.35;3.78;;;;;;;18.28;76.22;98271.66;5048698;28;20094;-75
2023/07/30 05:50:24;;;;;;;7.30;3.67;;;;;;;18.51;75.26;98273.19;5045511;28;20477;-75
2023/07/30 05:52:50;;;;;;;6.45;3.55;;;;;;;18.51;74.35;98257.78;5049339;28;20504;-76
2023/07/30 05:55:15;;;;;;;7.50;3.78;;;;;;;18.62;74.16;98274.50;5050313;28;20675;-75
2023/07/30 05:57:40;;;;;;;5.80;3.58;;;;;;;18.75;73.49;98270.06;5049493;28;20405;-75
2023/07/30 06:00:06;;;;;;;9.32;4.38;;;;;;;18.55;74.08;98274.94;5044360;28;20036;-74
2023/07/30 06:02:32;;;;;;;7.82;3.92;;;;;;;18.53;74.18;98271.78;5050353;28;20447;-75
2023/07/30 06:04:57;;;;;;;5.22;3.58;;;;;;;18.50;73.88;98266.97;5047006;28;20543;-75
2023/07/30 06:07:23;;;;;;;10.98;3.80;;;;;;;18.58;73.95;98277.03;5046473;28;20087;-74
2023/07/30 06:09:48;;;;;;;3.67;2.80;;;;;;;18.48;74.82;98284.63;5049029;28;20460;-75
2023/07/30 06:12:13;;;;;;;7.18;3.70;;;;;;;18.68;73.93;98289.44;5039622;28;20037;-74
2023/07/30 06:14:39;;;;;;;7.28;3.03;;;;;;;18.69;73.04;98277.53;5041890;28;20072;-73
2023/07/30 06:17:04;;;;;;;4.32;3.67;;;;;;;18.74;73.49;98280.06;5031167;28;20441;-74
2023/07/30 06:19:30;;;;;;;7.53;4.32;;;;;;;18.68;73.20;98281.34;5045629;28;20484;-74
2023/07/30 06:21:55;;;;;;;7.05;3.70;;;;;;;18.72;73.03;98285.00;5047657;28;20110;-75
2023/07/30 06:24:20;;;;;;;11.38;3.65;;;;;;;18.81;72.80;98266.91;5046515;28;20110;-77
2023/07/30 06:26:46;;;;;;;5.80;3.08;;;;;;;18.89;72.46;98273.44;5048336;28;20032;-76
2023/07/30 06:29:11;;;;;;;6.55;3.70;;;;;;;18.94;72.00;98282.19;5049307;28;20040;-74
2023/07/30 06:31:36;;;;;;;9.23;4.28;;;;;;;19.07;71.88;98281.25;5046980;28;20049;-75
2023/07/30 06:34:02;;;;;;;6.65;3.67;;;;;;;18.93;72.15;98286.03;5048537;28;20098;-74
2023/07/30 06:36:27;;;;;;;7.40;3.90;;;;;;;18.96;71.62;98271.84;5046004;28;20490;-73
2023/07/30 06:38:53;;;;;;;4.05;3.00;;;;;;;19.00;71.43;98278.22;5045707;28;20450;-72
2023/07/30 06:41:18;;;;;;;4.43;3.00;;;;;;;19.04;70.59;98284.59;5045694;28;20138;-73
2023/07/30 06:43:44;;;;;;;4.47;2.70;;;;;;;19.03;71.28;98283.00;5045827;28;20032;-73
2023/07/30 06:46:09;;;;;;;5.07;3.17;;;;;;;19.15;70.25;98282.38;5044165;28;20438;-73
2023/07/30 06:48:34;;;;;;;4.55;2.78;;;;;;;19.06;70.51;98278.88;5048272;28;20037;-73
2023/07/30 06:51:00;;;;;;;4.72;3.28;;;;;;;19.20;69.96;98284.91;5041157;28;20167;-73
2023/07/30 06:53:26;;;;;;;4.80;3.25;;;;;;;19.31;69.18;98286.19;5047295;28;20056;-73
2023/07/30 06:55:54;;;;;;;6.53;3.38;;;;;;;19.24;70.55;98283.97;5047730;28;20064;-74
2023/07/30 06:58:20;;;;;;;4.53;3.67;;;;;;;19.10;72.64;98282.53;5050188;28;20473;-73
2023/07/30 07:00:45;;;;;;;6.15;2.88;;;;;;;19.29;69.58;98286.50;5044384;28;20103;-74
2023/07/30 07:03:10;;;;;;;5.25;3.15;;;;;;;19.39;69.31;98296.25;5039444;28;20105;-74
2023/07/30 07:05:36;;;;;;;7.65;2.80;;;;;;;19.38;69.78;98295.47;5043300;28;20389;-73
2023/07/30 07:08:01;;;;;;;7.50;3.38;;;;;;;19.32;69.80;98287.78;5047245;28;20122;-73
2023/07/30 07:10:26;;;;;;;8.60;3.67;;;;;;;19.42;69.72;98291.00;5047711;28;20040;-73
2023/07/30 07:12:52;;;;;;;5.65;3.58;;;;;;;19.43;69.55;98292.59;5048869;28;20524;-73
2023/07/30 07:15:17;;;;;;;5.93;3.35;;;;;;;19.45;69.65;98289.56;5043053;28;20041;-73
2023/07/30 07:17:43;;;;;;;5.95;3.38;;;;;;;19.53;69.32;98304.22;5045321;28;20948;-73
2023/07/30 07:20:08;;;;;;;6.60;3.28;;;;;;;19.39;69.17;98293.56;5050694;28;20140;-74
2023/07/30 07:22:34;;;;;;;6.18;3.10;;;;;;;19.43;69.75;98306.13;5047252;28;20071;-74
2023/07/30 07:24:59;;;;;;;9.70;3.95;;;;;;;19.56;68.82;98307.09;5038424;28;20031;-74
2023/07/30 07:27:25;;;;;;;10.27;3.90;;;;;;;19.46;71.21;98303.91;5041628;28;20085;-74
2023/07/30 07:29:51;;;;;;;3.47;3.15;;;;;;;19.65;68.83;98318.72;5042325;28;20040;-74
2023/07/30 07:32:17;;;;;;;5.55;3.53;;;;;;;19.83;68.00;98314.06;5043393;28;20039;-74
2023/07/30 07:34:47;;;;;;;5.03;3.17;;;;;;;19.85;68.43;98311.81;5046836;28;20021;-74
2023/07/30 07:37:15;;;;;;;3.97;2.83;;;;;;;19.84;68.61;98319.16;5040400;28;20029;-74
2023/07/30 07:39:43;;;;;;;6.68;3.90;;;;;;;19.89;68.56;98320.91;5040602;28;20094;-74
2023/07/30 07:42:09;;;;;;;5.70;3.35;;;;;;;20.00;68.00;98322.97;5050227;28;20032;-74
2023/07/30 07:44:34;;;;;;;3.53;3.00;;;;;;;20.02;67.71;98323.44;5044348;28;20093;-74
2023/07/30 07:46:59;;;;;;;6.18;3.22;;;;;;;20.01;69.10;98312.88;5044608;28;20024;-73
2023/07/30 07:49:25;;;;;;;4.50;3.50;;;;;;;20.17;67.16;98303.94;5044246;28;20033;-74
2023/07/30 07:51:50;;;;;;;4.50;3.33;;;;;;;20.00;70.34;98297.78;5039346;28;20120;-74
2023/07/30 07:54:16;;;;;;;5.28;3.25;;;;;;;20.14;67.53;98298.34;5050020;28;20341;-74
2023/07/30 07:56:41;;;;;;;9.90;3.75;;;;;;;20.16;67.37;98296.91;5045024;28;20037;-74
2023/07/30 07:59:07;;;;;;;3.70;3.22;;;;;;;20.16;67.58;98286.06;5036492;28;20041;-74
2023/07/30 08:01:32;;;;;;;6.20;3.30;;;;;;;20.34;66.49;98297.69;5041475;28;20182;-74
2023/07/30 08:03:58;;;;;;;3.38;3.08;;;;;;;20.44;66.04;98302.75;5042297;28;20048;-74
2023/07/30 08:06:23;;;;;;;4.75;3.10;;;;;;;20.38;66.24;98293.19;5043838;28;20120;-74
2023/07/30 08:08:50;;;;;;;5.78;3.13;;;;;;;20.56;65.46;98300.13;5064708;22;20447;-83
2023/07/30 08:11:17;;;;;;;2.78;2.58;;;;;;;20.63;65.61;98303.13;5039108;28;20041;-84
2023/07/30 08:13:42;;;;;;;3.90;3.30;;;;;;;20.53;65.79;98311.63;5039977;28;20053;-85
2023/07/30 08:16:07;;;;;;;4.13;3.00;;;;;;;20.53;65.80;98291.88;5043318;28;20459;-84
2023/07/30 08:18:33;;;;;;;4.88;3.40;;;;;;;20.59;65.77;98301.41;5045994;28;20032;-84
2023/07/30 08:21:00;;;;;;;2.70;2.45;;;;;;;20.57;65.24;98292.81;5016742;28;20039;-84
2023/07/30 08:23:26;;;;;;;5.93;3.20;;;;;;;20.68;65.37;98310.28;5039115;28;20029;-85
2023/07/30 08:25:51;;;;;;;3.95;3.03;;;;;;;20.67;65.28;98314.13;5041349;28;20025;-84
2023/07/30 08:28:16;;;;;;;3.00;2.70;;;;;;;20.64;65.69;98312.84;5040414;28;20488;-84
2023/07/30 08:30:42;;;;;;;5.50;3.28;;;;;;;20.59;65.29;98306.81;5036032;28;20423;-84
2023/07/30 08:33:07;;;;;;;4.82;3.05;;;;;;;20.68;65.80;98319.22;5022258;28;20051;-82
2023/07/30 08:35:32;;;;;;;4.95;3.25;;;;;;;20.61;65.76;98321.66;5037251;28;20036;-82
2023/07/30 08:37:58;;;;;;;4.00;3.03;;;;;;;20.58;65.83;98318.78;5045225;28;20020;-83
2023/07/30 08:40:24;;;;;;;4.47;2.92;;;;;;;20.52;65.80;98310.06;5018447;28;20111;-82
2023/07/30 08:42:51;;;;;;;5.60;3.08;;;;;;;20.59;65.43;98312.25;5039701;28;20021;-83
2023/07/30 08:45:16;;;;;;;4.22;3.40;;;;;;;20.63;65.62;98305.03;5038246;28;20474;-83
2023/07/30 08:47:42;;;;;;;10.02;3.83;;;;;;;20.61;65.38;98286.41;5014558;28;20044;-84
2023/07/30 08:50:08;;;;;;;4.97;3.67;;;;;;;20.72;65.58;98298.47;5036208;28;20117;-84
2023/07/30 08:52:35;;;;;;;4.53;3.40;;;;;;;20.75;65.45;98305.16;5035180;28;20037;-83
2023/07/30 08:55:03;;;;;;;4.13;3.72;;;;;;;20.68;65.65;98308.38;5036443;28;20036;-82
2023/07/30 08:57:29;;;;;;;5.93;3.83;;;;;;;20.78;65.24;98299.88;5026905;28;20028;-82
2023/07/30 09:00:03;;;;;;;6.38;4.38;;;;;;;20.72;65.33;98284.91;5020263;28;20036;-82
2023/07/30 09:02:37;;;;;;;6.25;4.15;;;;;;;20.78;65.37;98307.19;5021469;28;20032;-82
2023/07/30 09:05:04;;;;;;;6.53;4.30;;;;;;;20.58;65.93;98300.59;5027113;28;20153;-84
2023/07/30 09:07:29;;;;;;;8.50;3.92;;;;;;;20.67;65.65;98305.97;5024926;28;20033;-83
2023/07/30 09:09:55;;;;;;;7.93;3.55;;;;;;;20.58;66.22;98306.03;5019723;28;20538;-83
2023/07/30 09:12:26;;;;;;;7.60;4.50;;;;;;;20.57;65.62;98299.03;5030446;28;20036;-84
2023/07/30 09:14:51;;;;;;;7.75;4.57;;;;;;;20.51;66.03;98308.44;5030161;28;20656;-85
2023/07/30 09:17:18;;;;;;;7.05;3.90;;;;;;;20.32;66.58;98299.91;5027542;28;20025;-85
2023/07/30 09:19:44;;;;;;;5.45;4.63;;;;;;;20.30;67.02;98301.38;5028357;28;20034;-85
2023/07/30 09:22:09;;;;;;;5.30;4.05;;;;;;;20.22;67.18;98310.31;5034755;28;20427;-85
2023/07/30 09:24:35;;;;;;;6.47;5.28;;;;;;;20.10;67.41;98308.25;5040728;28;20484;-85
2023/07/30 09:27:02;;;;;;;6.40;5.47;;;;;;;20.13;67.51;98315.75;5023630;28;20060;-85
2023/07/30 09:29:27;;;;;;;7.78;5.53;;;;;;;20.13;67.57;98315.75;5027642;28;20037;-84
2023/07/30 09:31:55;;;;;;;6.63;5.50;;;;;;;20.14;67.50;98325.44;5028655;28;20079;-85
2023/07/30 09:34:22;;;;;;;5.50;5.00;;;;;;;20.06;68.00;98312.72;5012346;28;21304;-85
2023/07/30 09:36:50;;;;;;;6.97;5.22;;;;;;;20.01;68.05;98312.88;5046755;28;20408;-85
2023/07/30 09:39:19;;;;;;;8.52;5.97;;;;;;;20.03;68.52;98335.84;5040988;28;20033;-84
2023/07/30 09:41:45;;;;;;;6.40;5.40;;;;;;;19.98;69.45;98337.94;5031807;28;20040;-85
2023/07/30 09:44:11;;;;;;;8.77;5.93;;;;;;;19.91;70.15;98335.72;5017703;28;20057;-83
2023/07/30 09:46:45;;;;;;;9.20;6.43;;;;;;;19.84;70.92;98337.31;5034387;28;20099;-84
2023/07/30 09:49:10;;;;;;;8.15;6.60;;;;;;;19.84;70.98;98351.66;5033593;28;20033;-84
2023/07/30 09:51:41;;;;;;;7.90;6.50;;;;;;;19.70;72.19;98347.53;5030151;28;20453;-83
2023/07/30 09:54:08;;;;;;;8.60;6.25;;;;;;;19.63;73.02;98352.63;5034434;28;20489;-84
2023/07/30 09:56:36;;;;;;;7.53;6.82;;;;;;;19.67;73.44;98353.56;5016857;28;20029;-83
2023/07/30 09:59:01;;;;;;;8.73;7.38;;;;;;;19.43;74.47;98356.75;5049717;28;20110;-83
2023/07/30 10:01:29;;;;;;;8.80;6.90;;;;;;;19.49;74.67;98349.28;5033083;28;20056;-83
2023/07/30 10:03:57;;;;;;;8.70;6.32;;;;;;;19.48;75.59;98358.53;5029987;28;20025;-83
2023/07/30 10:06:25;;;;;;;10.45;7.25;;;;;;;19.34;76.46;98358.63;5027514;28;20077;-82
2023/07/30 10:08:53;;;;;;;6.38;5.78;;;;;;;19.33;76.39;98360.53;5036334;28;20105;-82
2023/07/30 10:11:20;;;;;;;7.38;6.45;;;;;;;19.12;77.77;98342.53;5017698;28;20099;-82
2023/07/30 10:13:46;;;;;;;7.95;5.82;;;;;;;19.37;76.46;98358.81;5034379;28;20074;-82
2023/07/30 10:16:12;;;;;;;7.18;6.05;;;;;;;19.39;77.05;98380.97;5036314;28;20042;-82
2023/07/30 10:18:43;;;;;;;6.95;6.03;;;;;;;19.42;76.99;98382.22;5016441;28;20505;-82
2023/07/30 10:21:09;;;;;;;6.55;5.93;;;;;;;19.29;77.40;98370.41;5024825;28;20142;-81
2023/07/30 10:23:35;;;;;;;9.27;5.88;;;;;;;19.39;77.67;98372.84;5036066;28;20032;-82
2023/07/30 10:26:10;;;;;;;8.23;5.20;;;;;;;19.32;77.86;98386.03;5040967;28;20060;-82
2023/07/30 10:28:38;;;;;;;8.18;5.40;;;;;;;19.29;77.71;98370.41;5043982;28;20481;-82
2023/07/30 10:31:08;;;;;;;7.63;5.55;;;;;;;19.31;77.82;98386.31;5004681;28;20029;-82
2023/07/30 10:33:55;;;;;;;9.05;5.80;;;;;;;19.16;78.74;98384.88;5032204;28;20479;-82
2023/07/30 10:36:32;;;;;;;7.07;5.53;;;;;;;19.06;78.43;98390.59;5032658;28;20501;-81
2023/07/30 10:39:11;;;;;;;7.25;5.80;;;;;;;19.16;78.35;98376.75;5029155;28;20461;-82
2023/07/30 10:41:37;;;;;;;8.23;5.75;;;;;;;19.12;78.93;98391.22;5031516;28;20038;-82
2023/07/30 10:44:03;;;;;;;7.93;5.20;;;;;;;19.19;78.50;98386.97;5033479;28;20122;-82
2023/07/30 10:46:28;;;;;;;7.40;5.55;;;;;;;18.98;79.34;98385.16;5033216;28;20033;-81
2023/07/30 10:48:54;;;;;;;7.55;4.53;;;;;;;19.03;79.31;98382.28;5053027;28;20033;-82
2023/07/30 10:51:20;;;;;;;6.07;5.38;;;;;;;19.12;78.79;98385.81;5036208;28;20029;-82
2023/07/30 10:53:47;;;;;;;5.50;5.00;;;;;;;19.18;78.38;98396.16;5033279;28;20122;-82
2023/07/30 10:56:15;;;;;;;7.50;5.32;;;;;;;19.09;79.20;98383.75;5039101;28;20051;-82
2023/07/30 10:58:42;;;;;;;6.47;5.13;;;;;;;19.07;79.50;98396.78;5033056;28;20549;-82
2023/07/30 11:01:08;;;;;;;7.43;5.07;;;;;;;19.02;79.22;98395.03;5037441;28;20141;-82
2023/07/30 11:03:34;;;;;;;6.13;4.82;;;;;;;19.08;78.90;98379.44;5011390;28;21949;-82
2023/07/30 11:06:01;;;;;;;11.00;5.43;;;;;;;19.04;79.25;98402.81;5027948;28;20029;-82
2023/07/30 11:08:40;;;;;;;5.25;4.75;;;;;;;19.15;78.52;98396.81;5013450;28;20037;-82
2023/07/30 11:11:07;;;;;;;6.80;4.95;;;;;;;18.79;80.55;98393.50;5027204;28;20029;-82
2023/07/30 11:13:40;;;;;;;6.47;4.47;;;;;;;18.88;80.37;98401.66;5029128;28;20689;-81
2023/07/30 11:16:07;;;;;;;4.78;4.05;;;;;;;18.88;80.13;98405.16;5021863;28;20710;-81
2023/07/30 11:18:34;;;;;;;7.13;4.70;;;;;;;18.90;80.25;98405.63;5018408;28;20941;-81
2023/07/30 11:21:06;;;;;;;5.55;4.82;;;;;;;18.61;81.28;98408.84;5039157;28;20477;-81
2023/07/30 11:23:33;;;;;;;5.40;4.30;;;;;;;18.62;80.85;98412.38;5027059;28;20029;-81
2023/07/30 11:26:01;;;;;;;6.85;5.25;;;;;;;18.78;80.80;98397.34;5037952;28;20033;-81
2023/07/30 11:28:30;;;;;;;5.35;4.10;;;;;;;18.78;80.35;98402.75;5014637;28;20029;-81